Crestview, FL

4:30 AM CDT on October 21, 2014 (GMT -0500)
Sikes | Change Station
CLOSE
Current Station
Airport
Location: Crestview,
Elevation: 213 ft
Nearby Weather Stations

Elev 213 ft 30.78 °N, 86.52 °W | Updated 37 minutes ago

Clear
Clear
48 °F
Feels Like 48 °F
N
0
Wind Variable Wind from North

Today
High -- | Low -- °F
--% Chance of Precip.
Yesterday
High -- | Low -- °F
Precip. -- in
6:52 AM 6:08 PM
Waning Crescent, 6% visible
Pressure 30.01 in
Visibility 8.0 miles
Clouds Clear
Dew Point 47 °F
Humidity 96%
Rainfall 0.00 in
Snow Depth Not available.
UV 0 out of 12
Pollen 3.60 out of 12
Air Quality Not available.
Flu Activity Local Activity
METAR KCEW 210853Z AUTO 00000KT 8SM CLR 09/08 A3001 RMK AO2 SLP161 T00890083 58001

More Conditions Fewer Conditions

Pressure 30.01 in
Visibility 8.0 miles
Clouds Clear
Dew Point 47 °F
Humidity 96%
Rainfall 0.00 in
Snow Depth Not available.
UV 0 out of 12
Pollen 3.60 out of 12
Air Quality Not available.
Flu Activity Local Activity
METAR KCEW 210853Z AUTO 00000KT 8SM CLR 09/08 A3001 RMK AO2 SLP161 T00890083 58001

More Conditions Fewer Conditions

10-Day Weather Forecast

Almanac

Astronomy

Oct. 21, 2014 Rise Set
Actual Time 6:52 AM CDT 6:08 PM CDT
Civil Twilight 6:28 AM CDT 6:32 PM CDT
Nautical Twilight 6:00 AM CDT 7:00 PM CDT
Astronomical Twilight 5:32 AM CDT 7:28 PM CDT
Moon 4:45 AM CDT 4:54 PM CDT
Length of Visible Light 12h 04m
Length of Day
11h 15m
Tomorrow will be 1m 44s shorter.
Waning Crescent, 6% of the Moon is Illuminated
Today
Waning Crescent
Oct 23
New
Oct 30
First Quarter
Nov 6
Full
Nov 14
Last Quarter

Today's Extremes

State Highs State Lows

Community

WunderPhotos

Upload Photos

1,763,619 photos uploaded!

Nearby

Air Quality

  Air Quality AQ Index Pollutant
Yesterday Good
PM2.5
Tuesday Moderate
PM2.5
Tuesday Good
OZONE

Snow Depth

Station Depth Elevation
No new snow has been reported.

Earthquake Activity

City Distance Mag. Time & Date
No recent earthquake activity has been reported nearby.
Minimum magnitude displayed is 2.5.

Coastal Water Temperatures

Place Temperature
No Stations Reporting

Nearby Weather Stations